Time;durP1;ratioP1;P1;durP2;ratioP2;P2;SDS_P1;SDS_P2;PMS_P1;PMS_P2;Temp;Humidity;BMP_temperature;BMP_pressure;BME280_temperature;BME280_humidity;BME280_pressure;Samples;Min_cycle;Max_cycle;Signal;HPM_P1;HPM_P2
2023/03/14 00:00:17;;;;;;;4.93;2.22;;;;;;;20.47;40.17;98750.47;5047710;28;20040;-76
2023/03/14 00:02:42;;;;;;;4.50;1.88;;;;;;;20.46;39.89;98754.22;5053994;28;20033;-75
2023/03/14 00:05:08;;;;;;;4.75;1.85;;;;;;;20.44;40.12;98749.06;5062918;28;20057;-75
2023/03/14 00:07:36;;;;;;;4.35;1.75;;;;;;;20.44;39.90;98748.25;5049274;28;20026;-75
2023/03/14 00:10:11;;;;;;;3.72;1.77;;;;;;;20.20;39.84;98715.78;5046693;28;20052;-75
2023/03/14 00:12:36;;;;;;;6.50;2.47;;;;;;;20.42;39.72;98759.25;5050299;28;20041;-75
2023/03/14 00:15:03;;;;;;;3.80;1.95;;;;;;;20.41;39.77;98762.19;5058081;28;20060;-74
2023/03/14 00:17:30;;;;;;;4.85;1.88;;;;;;;20.40;39.93;98752.44;5061197;28;20055;-74
2023/03/14 00:19:56;;;;;;;5.43;2.20;;;;;;;20.28;39.91;98732.69;5065127;28;20110;-75
2023/03/14 00:22:21;;;;;;;3.53;1.75;;;;;;;20.25;40.03;98725.88;5049422;28;20033;-75
2023/03/14 00:24:47;;;;;;;5.18;1.67;;;;;;;20.37;39.91;98742.94;5049407;28;20037;-75
2023/03/14 00:27:12;;;;;;;3.50;2.13;;;;;;;20.36;40.06;98752.09;5047500;28;20026;-76
2023/03/14 00:29:37;;;;;;;3.80;1.70;;;;;;;20.20;40.13;98731.97;5050655;28;20049;-76
2023/03/14 00:32:03;;;;;;;6.32;1.88;;;;;;;20.26;40.03;98754.50;5046919;28;20067;-76
2023/03/14 00:34:30;;;;;;;4.22;1.92;;;;;;;20.26;39.86;98749.09;5051329;28;20033;-76
2023/03/14 00:36:55;;;;;;;4.28;1.88;;;;;;;20.32;40.04;98759.00;5047148;28;20026;-76
2023/03/14 00:39:20;;;;;;;3.92;1.50;;;;;;;20.06;39.96;98717.03;5049549;28;20047;-76
2023/03/14 00:41:45;;;;;;;5.78;2.10;;;;;;;20.27;39.91;98758.06;5061018;28;20371;-76
2023/03/14 00:44:11;;;;;;;4.07;2.17;;;;;;;20.17;40.09;98732.41;5068193;28;20039;-75
2023/03/14 00:46:36;;;;;;;5.22;2.05;;;;;;;20.06;40.10;98727.00;5047592;28;20029;-75
2023/03/14 00:49:01;;;;;;;3.63;1.77;;;;;;;20.00;40.22;98703.63;5049637;28;20029;-75
2023/03/14 00:51:27;;;;;;;2.55;1.55;;;;;;;20.28;39.96;98752.41;5048653;28;20041;-76
2023/03/14 00:53:52;;;;;;;3.63;1.65;;;;;;;20.26;40.72;98745.59;5049691;28;20029;-76
2023/03/14 00:56:17;;;;;;;5.45;2.33;;;;;;;20.22;40.20;98739.84;5046343;28;20105;-75
2023/03/14 00:58:43;;;;;;;4.10;1.60;;;;;;;20.05;40.17;98720.78;5048593;28;20057;-75
2023/03/14 01:01:12;;;;;;;4.32;2.55;;;;;;;20.23;40.20;98753.09;5053673;28;20149;-75
2023/03/14 01:03:37;;;;;;;5.00;1.77;;;;;;;20.06;40.10;98735.09;5066076;28;20078;-75
2023/03/14 01:06:07;;;;;;;4.20;1.80;;;;;;;20.21;39.94;98755.19;5063987;28;20132;-75
2023/03/14 01:08:32;;;;;;;3.45;2.05;;;;;;;20.19;40.09;98749.22;5052827;28;20021;-75
2023/03/14 01:10:58;;;;;;;3.17;1.63;;;;;;;20.19;40.26;98746.53;5059736;28;20094;-75
2023/03/14 01:13:23;;;;;;;4.30;2.00;;;;;;;20.18;40.06;98747.56;5054022;28;20429;-75
2023/03/14 01:15:48;;;;;;;5.32;2.38;;;;;;;20.16;40.10;98752.38;5065013;28;20021;-75
2023/03/14 01:18:13;;;;;;;4.00;1.73;;;;;;;20.17;40.20;98763.97;5062388;28;20143;-75
2023/03/14 01:20:39;;;;;;;4.10;1.90;;;;;;;20.14;40.21;98756.38;5059165;28;20026;-74
2023/03/14 01:23:04;;;;;;;3.90;1.73;;;;;;;20.14;39.99;98759.06;5053944;28;20088;-74
2023/03/14 01:25:29;;;;;;;4.70;1.92;;;;;;;20.12;40.30;98764.66;5050809;28;20027;-75
2023/03/14 01:27:55;;;;;;;4.97;1.90;;;;;;;19.48;40.24;98660.94;5057063;28;20029;-75
2023/03/14 01:30:20;;;;;;;4.30;1.70;;;;;;;19.90;40.33;98745.47;5058225;28;20036;-75
2023/03/14 01:32:45;;;;;;;4.10;1.85;;;;;;;19.89;40.09;98727.63;5053130;28;20092;-75
2023/03/14 01:35:11;;;;;;;2.45;1.42;;;;;;;20.10;40.14;98780.28;5051701;28;20071;-76
2023/03/14 01:37:36;;;;;;;4.25;1.77;;;;;;;20.08;40.02;98776.16;5058848;28;20025;-75
2023/03/14 01:40:03;;;;;;;2.83;1.38;;;;;;;19.82;40.21;98729.59;5056798;28;20067;-74
2023/03/14 01:42:28;;;;;;;3.28;1.40;;;;;;;19.87;40.00;98739.69;5050744;28;20025;-75
2023/03/14 01:44:55;;;;;;;4.32;1.90;;;;;;;20.08;40.30;98768.06;5050871;28;20063;-75
2023/03/14 01:47:21;;;;;;;2.80;1.70;;;;;;;19.83;40.02;98735.81;5060382;28;20029;-75
2023/03/14 01:50:12;;;;;;;3.97;1.83;;;;;;;19.81;40.01;98738.75;5055333;28;20033;-74
2023/03/14 01:52:46;;;;;;;2.72;1.52;;;;;;;20.05;40.17;98788.22;5051199;28;20095;-75
2023/03/14 01:55:14;;;;;;;4.47;1.48;;;;;;;20.04;40.04;98778.47;5071708;28;20035;-73
2023/03/14 01:57:42;;;;;;;3.28;1.27;;;;;;;19.84;40.17;98767.94;5072558;28;20021;-75
2023/03/14 02:00:21;;;;;;;5.78;1.75;;;;;;;19.97;39.93;98783.97;5050361;28;20033;-75
2023/03/14 02:02:48;;;;;;;;;;;;;;;19.97;40.19;98780.44;5063662;28;20028;-75
2023/03/14 02:05:18;;;;;;;3.25;1.75;;;;;;;19.72;40.26;98758.97;5069954;28;19952;-75
2023/03/14 02:07:47;;;;;;;4.45;2.17;;;;;;;19.92;39.99;98786.53;5058896;28;20100;-76
2023/03/14 02:10:14;;;;;;;7.35;1.75;;;;;;;19.44;40.07;98719.03;5062359;28;20029;-76
2023/03/14 02:12:39;;;;;;;3.13;1.40;;;;;;;19.65;40.13;98745.56;5052214;28;20029;-75
2023/03/14 02:15:05;;;;;;;4.20;1.50;;;;;;;19.64;40.03;98746.63;5061817;28;20052;-76
2023/03/14 02:17:31;;;;;;;3.58;1.50;;;;;;;19.87;40.09;98763.97;5052426;28;20090;-75
2023/03/14 02:20:24;;;;;;;2.13;1.00;;;;;;;19.83;40.42;98770.84;5050527;28;20035;-76
2023/03/14 02:22:49;;;;;;;4.25;1.50;;;;;;;19.57;40.44;98726.97;5050655;28;20029;-74
2023/03/14 02:25:40;;;;;;;2.28;1.55;;;;;;;19.84;40.39;98765.25;5053262;28;20053;-75
2023/03/14 02:28:05;;;;;;;2.20;1.42;;;;;;;19.85;40.33;98752.59;5050414;28;20037;-75
2023/03/14 02:30:32;;;;;;;2.75;1.45;;;;;;;19.84;40.05;98751.78;5055321;28;20044;-75
2023/03/14 02:33:00;;;;;;;2.58;1.20;;;;;;;19.82;40.15;98756.56;5048723;28;20025;-75
2023/03/14 02:35:29;;;;;;;2.47;1.40;;;;;;;19.81;40.21;98762.19;5053320;28;20068;-75
2023/03/14 02:38:15;;;;;;;3.28;1.45;;;;;;;19.80;40.52;98760.53;5050220;28;20061;-75
2023/03/14 02:40:40;;;;;;;2.53;1.13;;;;;;;19.79;40.38;98767.78;5052557;28;20524;-73
2023/03/14 02:43:05;;;;;;;4.65;1.90;;;;;;;19.79;39.98;98758.88;5051434;28;20030;-74
2023/03/14 02:45:42;;;;;;;4.47;1.42;;;;;;;19.63;40.34;98733.38;5063589;28;20033;-75
2023/03/14 02:48:15;;;;;;;2.88;1.52;;;;;;;19.77;40.27;98752.91;5068840;28;20049;-75
2023/03/14 02:50:41;;;;;;;2.72;1.10;;;;;;;19.76;40.48;98767.44;5055224;28;20047;-75
2023/03/14 02:53:07;;;;;;;2.53;1.52;;;;;;;19.49;40.28;98722.69;5049023;28;20029;-75
2023/03/14 02:55:33;;;;;;;2.90;1.42;;;;;;;19.73;40.23;98760.63;5059981;28;20116;-75
2023/03/14 02:57:58;;;;;;;3.63;1.40;;;;;;;19.46;40.48;98716.97;5053238;28;20025;-75
2023/03/14 03:00:23;;;;;;;3.45;1.75;;;;;;;19.69;40.40;98740.53;5048238;28;20526;-75
2023/03/14 03:02:49;;;;;;;3.70;1.33;;;;;;;19.63;40.02;98738.78;5049656;28;20031;-75
2023/03/14 03:05:14;;;;;;;2.85;1.20;;;;;;;19.70;40.44;98742.19;5052674;28;20135;-76
2023/03/14 03:07:39;;;;;;;4.13;1.65;;;;;;;19.51;40.11;98722.50;5051084;28;20021;-75
2023/03/14 03:10:05;;;;;;;2.15;1.30;;;;;;;19.68;40.29;98739.72;5047260;28;20474;-74
2023/03/14 03:12:31;;;;;;;2.42;1.40;;;;;;;19.09;40.46;98656.84;5049337;28;20094;-75
2023/03/14 03:14:56;;;;;;;3.17;1.50;;;;;;;19.66;40.35;98747.19;5057119;28;20051;-75
2023/03/14 03:17:21;;;;;;;3.50;1.20;;;;;;;19.59;40.38;98734.84;5051961;28;20478;-76
2023/03/14 03:19:46;;;;;;;2.20;1.20;;;;;;;19.64;40.03;98749.31;5058449;28;20080;-76
2023/03/14 03:22:12;;;;;;;2.75;1.23;;;;;;;19.63;40.41;98739.59;5053659;28;20025;-74
2023/03/14 03:24:37;;;;;;;1.73;1.10;;;;;;;19.63;40.44;98734.19;5056720;28;20022;-76
2023/03/14 03:27:02;;;;;;;3.45;1.30;;;;;;;19.62;40.17;98740.63;5050318;28;20032;-75
2023/03/14 03:29:28;;;;;;;2.47;1.45;;;;;;;19.55;40.39;98721.00;5058977;28;20026;-75
2023/03/14 03:31:53;;;;;;;4.10;1.83;;;;;;;19.48;40.44;98710.28;5054919;28;20526;-75
2023/03/14 03:34:18;;;;;;;3.60;1.20;;;;;;;19.59;40.26;98738.34;5055184;28;20092;-75
2023/03/14 03:36:44;;;;;;;2.80;1.20;;;;;;;19.58;40.43;98735.88;5049944;28;20407;-74
2023/03/14 03:39:09;;;;;;;2.50;1.30;;;;;;;19.58;40.65;98730.47;5057620;28;20124;-74
2023/03/14 03:41:34;;;;;;;2.35;1.27;;;;;;;19.49;40.37;98720.00;5060807;28;20027;-75
2023/03/14 03:44:00;;;;;;;3.75;1.50;;;;;;;19.56;40.50;98735.28;5054880;28;20037;-74
2023/03/14 03:46:25;;;;;;;2.00;1.10;;;;;;;19.41;40.25;98706.00;5050362;28;20065;-75
2023/03/14 03:48:58;;;;;;;4.53;1.67;;;;;;;19.47;40.42;98705.94;5049579;28;20097;-76
2023/03/14 03:51:23;;;;;;;2.00;1.02;;;;;;;19.54;40.64;98726.59;5058604;28;20185;-75
2023/03/14 03:53:48;;;;;;;2.42;1.35;;;;;;;19.51;40.18;98727.06;5051518;28;20049;-74
2023/03/14 03:56:13;;;;;;;4.10;1.10;;;;;;;19.29;40.64;98694.34;5048653;28;20036;-76
2023/03/14 03:58:39;;;;;;;2.50;1.05;;;;;;;19.51;40.40;98719.78;5049454;28;20466;-75
2023/03/14 04:01:08;;;;;;;2.63;1.48;;;;;;;19.23;40.29;98682.59;5056486;28;20017;-74
2023/03/14 04:03:33;;;;;;;;;;;;;;;19.49;40.49;98722.69;5049879;28;20115;-75
2023/03/14 04:06:03;;;;;;;2.75;1.10;;;;;;;19.30;40.39;98694.13;5048770;28;20007;-75
2023/03/14 04:08:29;;;;;;;2.05;1.13;;;;;;;19.31;40.49;98705.72;5049753;28;20037;-74
2023/03/14 04:10:59;;;;;;;1.95;1.10;;;;;;;19.45;40.46;98728.75;5053446;28;20110;-75
2023/03/14 04:13:25;;;;;;;3.40;1.42;;;;;;;19.31;40.72;98713.81;5049491;28;20510;-75
2023/03/14 04:15:51;;;;;;;2.45;1.20;;;;;;;19.44;40.57;98729.81;5059557;28;20030;-74
2023/03/14 04:18:16;;;;;;;2.90;1.42;;;;;;;19.42;40.36;98727.34;5066554;28;20057;-75
2023/03/14 04:20:41;;;;;;;4.05;1.52;;;;;;;19.21;40.30;98693.59;5050550;28;20360;-75
2023/03/14 04:23:07;;;;;;;3.80;1.48;;;;;;;19.41;40.26;98727.56;5061420;28;20040;-74
2023/03/14 04:25:32;;;;;;;4.38;1.40;;;;;;;19.18;40.30;98683.25;5053645;28;20017;-75
2023/03/14 04:27:57;;;;;;;3.38;1.30;;;;;;;19.39;40.32;98718.91;5050995;28;20025;-75
2023/03/14 04:30:23;;;;;;;2.67;1.17;;;;;;;19.39;40.22;98725.09;5049945;28;20035;-74
2023/03/14 04:32:48;;;;;;;3.65;1.42;;;;;;;19.34;40.54;98702.59;5064567;28;20033;-74
2023/03/14 04:35:13;;;;;;;2.45;1.48;;;;;;;19.38;40.29;98714.56;5047864;28;20546;-74
2023/03/14 04:37:39;;;;;;;1.23;1.10;;;;;;;19.33;40.29;98699.06;5050043;28;20033;-73
2023/03/14 04:40:06;;;;;;;1.70;1.45;;;;;;;19.21;40.62;98682.00;5051368;28;20056;-75
2023/03/14 04:42:32;;;;;;;2.20;1.15;;;;;;;19.35;40.43;98699.66;5069291;28;20037;-75
2023/03/14 04:44:57;;;;;;;2.40;1.33;;;;;;;19.34;40.47;98703.41;5051238;28;20025;-74
2023/03/14 04:47:22;;;;;;;2.20;1.45;;;;;;;18.92;40.50;98630.53;5070078;28;20379;-74
2023/03/14 04:49:47;;;;;;;3.13;1.40;;;;;;;19.34;40.55;98700.72;5048903;28;20032;-73
2023/03/14 04:52:13;;;;;;;2.67;1.15;;;;;;;19.18;40.40;98680.56;5071643;28;20030;-74
2023/03/14 04:54:38;;;;;;;3.42;1.10;;;;;;;19.33;40.55;98704.47;5053799;28;20493;-72
2023/03/14 04:57:03;;;;;;;2.38;1.30;;;;;;;19.34;40.60;98699.88;5054789;28;20033;-74
2023/03/14 04:59:29;;;;;;;2.35;1.02;;;;;;;19.33;40.35;98707.16;5052741;28;20518;-74
2023/03/14 05:01:54;;;;;;;3.17;1.13;;;;;;;19.34;40.23;98702.59;5063674;28;20025;-73
2023/03/14 05:04:19;;;;;;;3.78;1.30;;;;;;;19.33;40.41;98696.38;5049688;28;20029;-73
2023/03/14 05:06:44;;;;;;;2.78;1.23;;;;;;;19.34;40.29;98694.50;5052729;28;20531;-74
2023/03/14 05:09:10;;;;;;;3.15;1.25;;;;;;;19.34;40.15;98686.41;5055311;28;20041;-76
2023/03/14 05:11:35;;;;;;;2.50;1.23;;;;;;;19.34;40.50;98686.41;5054772;28;20028;-74
2023/03/14 05:14:00;;;;;;;4.00;1.20;;;;;;;19.11;40.05;98650.19;5049776;28;20120;-73
2023/03/14 05:16:25;;;;;;;3.33;1.15;;;;;;;19.18;40.39;98652.81;5051282;28;20034;-73
2023/03/14 05:18:51;;;;;;;2.67;1.20;;;;;;;19.07;40.65;98638.22;5057377;28;20120;-72
2023/03/14 05:21:16;;;;;;;3.15;1.23;;;;;;;19.24;40.40;98657.28;5071048;28;20089;-72
2023/03/14 05:23:41;;;;;;;1.63;1.08;;;;;;;19.34;40.58;98673.75;5060911;28;20032;-73
2023/03/14 05:26:06;;;;;;;4.25;1.00;;;;;;;19.36;40.69;98679.75;5061686;28;20079;-73
2023/03/14 05:28:32;;;;;;;3.45;1.17;;;;;;;19.37;40.68;98681.41;5059706;28;20031;-73
2023/03/14 05:30:57;;;;;;;2.47;1.20;;;;;;;19.31;40.52;98668.81;5057263;28;20089;-74
2023/03/14 05:33:22;;;;;;;4.00;1.05;;;;;;;19.41;40.60;98687.13;5060628;28;20032;-69
2023/03/14 05:35:48;;;;;;;2.33;1.20;;;;;;;19.43;40.53;98685.06;5061801;28;20025;-69
2023/03/14 05:38:13;;;;;;;5.63;1.20;;;;;;;19.44;40.78;98676.75;5058333;28;20479;-69
2023/03/14 05:40:38;;;;;;;4.70;1.27;;;;;;;19.46;41.03;98680.03;5053183;28;20029;-68
2023/03/14 05:43:04;;;;;;;5.35;1.70;;;;;;;19.39;41.00;98663.13;5061289;28;20080;-69
2023/03/14 05:45:29;;;;;;;3.90;1.25;;;;;;;19.43;41.32;98664.31;5063533;28;20041;-71
2023/03/14 05:47:54;;;;;;;3.15;1.48;;;;;;;19.55;41.02;98675.16;5060019;28;20039;-68
2023/03/14 05:50:20;;;;;;;2.88;1.17;;;;;;;19.56;41.16;98684.88;5057695;28;20044;-69
2023/03/14 05:52:45;;;;;;;2.47;1.02;;;;;;;19.59;41.33;98683.63;5060645;28;20020;-69
2023/03/14 05:55:10;;;;;;;3.65;1.48;;;;;;;19.54;41.53;98678.06;5059782;28;20249;-69
2023/03/14 05:57:35;;;;;;;3.35;1.33;;;;;;;19.61;41.42;98692.31;5060738;28;20028;-69
2023/03/14 06:00:01;;;;;;;5.90;1.50;;;;;;;19.62;41.27;98691.28;5060277;28;20041;-69
2023/03/14 06:02:26;;;;;;;4.68;1.55;;;;;;;19.41;41.48;98647.56;5060101;28;20390;-68
2023/03/14 06:04:52;;;;;;;4.65;1.60;;;;;;;19.61;41.60;98678.84;5058334;28;20056;-69
2023/03/14 06:07:17;;;;;;;3.50;1.20;;;;;;;19.67;41.39;98678.78;5059447;28;20033;-68
2023/03/14 06:09:43;;;;;;;3.78;1.52;;;;;;;19.68;41.49;98676.91;5059790;28;20075;-72
2023/03/14 06:12:08;;;;;;;2.63;1.33;;;;;;;19.70;41.77;98678.31;5062814;28;20025;-71
2023/03/14 06:14:33;;;;;;;2.22;1.10;;;;;;;19.73;41.37;98690.50;5059661;28;20056;-68
2023/03/14 06:16:59;;;;;;;3.72;1.20;;;;;;;19.19;41.55;98597.88;5059195;28;20063;-69
2023/03/14 06:19:25;;;;;;;2.75;1.10;;;;;;;19.75;41.20;98690.28;5059905;28;20055;-69
2023/03/14 06:21:50;;;;;;;2.97;1.20;;;;;;;19.76;41.74;98681.16;5061262;28;20027;-68
2023/03/14 06:24:15;;;;;;;2.08;1.10;;;;;;;19.73;41.50;98674.34;5055903;28;20494;-68
2023/03/14 06:26:41;;;;;;;3.60;1.55;;;;;;;19.79;41.46;98686.88;5060276;28;20040;-68
2023/03/14 06:29:06;;;;;;;4.28;1.48;;;;;;;19.80;41.53;98685.88;5061120;28;20143;-68
2023/03/14 06:31:31;;;;;;;5.13;1.55;;;;;;;19.80;41.45;98685.88;5058354;28;20083;-69
2023/03/14 06:33:57;;;;;;;3.42;0.90;;;;;;;19.71;41.86;98660.28;5054938;28;20017;-68
2023/03/14 06:36:22;;;;;;;2.42;1.20;;;;;;;19.52;41.63;98627.09;5048783;28;20009;-68
2023/03/14 06:38:48;;;;;;;3.70;1.20;;;;;;;19.85;41.44;98677.09;5057396;28;20033;-69
2023/03/14 06:41:13;;;;;;;2.90;1.08;;;;;;;19.83;41.60;98671.09;5049270;28;20039;-70
2023/03/14 06:43:38;;;;;;;2.70;1.17;;;;;;;19.89;41.44;98678.28;5056274;28;20029;-69
2023/03/14 06:46:04;;;;;;;2.92;1.08;;;;;;;19.91;41.44;98686.94;5056451;28;20029;-70
2023/03/14 06:48:29;;;;;;;2.88;1.35;;;;;;;19.56;41.53;98625.59;5054246;28;20053;-75
2023/03/14 06:50:54;;;;;;;1.83;0.90;;;;;;;19.92;41.44;98675.94;5055372;28;20116;-74
2023/03/14 06:53:20;;;;;;;3.70;1.10;;;;;;;19.93;41.18;98680.28;5050770;28;20060;-75
2023/03/14 06:55:45;;;;;;;2.72;1.15;;;;;;;19.71;41.06;98646.78;5053324;28;20022;-75
2023/03/14 06:58:11;;;;;;;4.95;1.17;;;;;;;19.83;41.03;98661.13;5054563;28;20680;-72
2023/03/14 07:00:36;;;;;;;3.72;1.73;;;;;;;19.20;41.28;98569.91;5051528;28;20044;-71
2023/03/14 07:03:02;;;;;;;2.22;1.20;;;;;;;19.72;41.39;98651.13;5055422;28;20028;-72
2023/03/14 07:05:27;;;;;;;2.42;0.93;;;;;;;19.95;41.50;98697.03;5059620;28;20048;-72
2023/03/14 07:07:53;;;;;;;3.47;1.10;;;;;;;19.71;41.13;98663.78;5057924;28;20054;-72
2023/03/14 07:10:18;;;;;;;2.13;1.38;;;;;;;19.98;41.20;98696.59;5058132;28;20092;-71
2023/03/14 07:12:43;;;;;;;3.05;1.50;;;;;;;19.81;40.98;98670.50;5054340;28;20051;-72
2023/03/14 07:15:09;;;;;;;3.30;0.93;;;;;;;19.75;40.97;98672.22;5052728;28;20029;-72
2023/03/14 07:17:34;;;;;;;2.88;0.88;;;;;;;20.01;41.18;98708.81;5049537;28;20021;-72
2023/03/14 07:20:00;;;;;;;3.08;1.02;;;;;;;19.87;40.86;98677.66;5051187;28;20375;-72
2023/03/14 07:22:26;;;;;;;2.47;0.90;;;;;;;19.93;40.77;98698.34;5053564;28;20017;-73
2023/03/14 07:24:51;;;;;;;2.20;1.17;;;;;;;19.88;41.00;98719.75;5052572;28;20552;-73
2023/03/14 07:27:16;;;;;;;3.60;1.25;;;;;;;19.78;40.66;98749.97;5047821;28;20036;-73
2023/03/14 07:29:42;;;;;;;2.33;1.15;;;;;;;19.85;40.86;98771.47;5049593;28;20029;-72
2023/03/14 07:32:07;;;;;;;3.88;1.00;;;;;;;20.05;40.65;98822.44;5057504;28;20108;-76
2023/03/14 07:34:33;;;;;;;3.58;1.00;;;;;;;19.83;40.78;98787.84;5049873;28;20013;-74
2023/03/14 07:36:58;;;;;;;2.05;0.90;;;;;;;20.06;40.54;98830.34;5059611;28;20029;-75
2023/03/14 07:39:24;;;;;;;2.50;0.90;;;;;;;19.77;40.48;98787.97;5055420;28;20064;-74
2023/03/14 07:41:49;;;;;;;2.40;1.02;;;;;;;20.09;40.49;98843.38;5060393;28;20032;-71
2023/03/14 07:44:14;;;;;;;1.98;0.98;;;;;;;19.83;40.81;98814.81;5057556;28;20017;-71
2023/03/14 07:46:39;;;;;;;2.45;1.05;;;;;;;20.09;40.95;98866.81;5056999;28;20017;-71
2023/03/14 07:49:05;;;;;;;1.75;0.80;;;;;;;19.81;40.73;98835.00;5060171;28;20504;-71
2023/03/14 07:51:30;;;;;;;2.13;0.75;;;;;;;20.11;40.67;98887.13;5057868;28;20035;-72
2023/03/14 07:53:55;;;;;;;3.20;1.00;;;;;;;19.97;40.77;98870.28;5056515;28;20025;-72
2023/03/14 07:56:21;;;;;;;1.77;0.70;;;;;;;20.14;40.66;98894.78;5058793;28;20675;-71
2023/03/14 07:58:46;;;;;;;1.73;0.90;;;;;;;19.93;40.67;98873.66;5059881;28;20036;-72
2023/03/14 08:01:11;;;;;;;1.50;0.82;;;;;;;20.14;40.67;98910.97;5057413;28;20093;-73
2023/03/14 08:03:36;;;;;;;1.85;0.85;;;;;;;20.14;40.97;98916.38;5056912;28;20025;-73
2023/03/14 08:06:02;;;;;;;4.35;1.20;;;;;;;20.16;40.58;98919.66;5056968;28;20490;-72
2023/03/14 08:08:27;;;;;;;2.50;1.00;;;;;;;20.15;41.01;98931.50;5068381;28;20067;-72
2023/03/14 08:10:52;;;;;;;1.63;0.60;;;;;;;20.15;40.59;98944.97;5058828;28;20111;-73
2023/03/14 08:13:18;;;;;;;1.75;0.80;;;;;;;20.09;40.78;98928.84;5048113;28;20029;-70
2023/03/14 08:15:48;;;;;;;2.35;0.80;;;;;;;20.08;40.81;98944.22;5058751;28;20139;-72
2023/03/14 08:18:13;;;;;;;1.88;0.93;;;;;;;19.89;40.43;98927.22;5059516;28;20017;-73
2023/03/14 08:20:38;;;;;;;1.65;0.70;;;;;;;19.64;40.61;98916.47;5044710;28;20051;-72
2023/03/14 08:23:04;;;;;;;2.25;1.00;;;;;;;20.18;40.47;99003.09;5056612;28;20080;-73
2023/03/14 08:25:29;;;;;;;1.33;0.70;;;;;;;19.79;40.60;98951.16;5056717;28;20033;-72
2023/03/14 08:27:55;;;;;;;1.30;0.80;;;;;;;20.12;40.58;99037.16;5055783;28;20044;-72
2023/03/14 08:30:21;;;;;;;1.77;0.70;;;;;;;20.00;40.41;99030.00;5058356;28;20036;-72
2023/03/14 08:32:46;;;;;;;1.95;0.77;;;;;;;20.19;40.06;99064.09;5039393;28;20021;-73
2023/03/14 08:35:12;;;;;;;1.35;1.10;;;;;;;19.78;40.78;99014.22;5056141;28;20052;-74
2023/03/14 08:37:37;;;;;;;2.08;0.60;;;;;;;20.20;40.56;99090.84;5056575;28;20052;-73
2023/03/14 08:40:09;;;;;;;1.58;0.80;;;;;;;20.09;40.64;99085.34;5052222;28;20048;-72
2023/03/14 08:42:38;;;;;;;1.20;0.73;;;;;;;20.20;40.46;99115.13;5065280;28;20021;-72
2023/03/14 08:45:04;;;;;;;1.73;0.80;;;;;;;20.11;40.64;99113.75;5055526;28;20040;-71
2023/03/14 08:47:29;;;;;;;2.42;0.75;;;;;;;19.84;40.59;99075.38;5057087;28;20036;-72
2023/03/14 08:49:54;;;;;;;1.80;0.85;;;;;;;20.22;40.58;99139.22;5058195;28;20388;-72
2023/03/14 08:52:20;;;;;;;1.27;0.73;;;;;;;18.82;40.48;98929.06;5056962;28;20033;-72
2023/03/14 08:54:45;;;;;;;3.60;1.13;;;;;;;20.19;40.40;99155.84;5056254;28;20033;-73
2023/03/14 08:57:11;;;;;;;1.23;0.70;;;;;;;19.97;40.32;99125.72;5056522;28;20024;-74
2023/03/14 08:59:36;;;;;;;2.35;1.00;;;;;;;20.26;40.06;99188.16;5057055;28;20533;-73
2023/03/14 09:02:03;;;;;;;2.78;0.80;;;;;;;20.03;40.40;99161.75;5058028;28;20040;-73
2023/03/14 09:04:29;;;;;;;1.48;0.77;;;;;;;20.28;40.37;99202.28;5054235;28;20033;-74
2023/03/14 09:06:55;;;;;;;2.35;0.90;;;;;;;20.30;40.26;99217.19;5058257;28;20036;-73
2023/03/14 09:09:20;;;;;;;2.15;0.88;;;;;;;19.60;40.45;99117.41;5050302;28;20037;-70
2023/03/14 09:11:45;;;;;;;14.43;2.17;;;;;;;20.10;40.49;99197.63;5055496;28;20040;-73
2023/03/14 09:14:10;;;;;;;1.42;0.60;;;;;;;19.59;40.48;99136.50;5057787;28;20413;-72
2023/03/14 09:16:36;;;;;;;1.75;0.60;;;;;;;20.35;40.40;99265.97;5056000;28;20025;-72
2023/03/14 09:19:01;;;;;;;1.42;0.60;;;;;;;20.09;40.34;99231.03;5052191;28;20067;-72
2023/03/14 09:21:27;;;;;;;1.38;0.93;;;;;;;20.10;40.23;99246.19;5052033;28;20096;-73
2023/03/14 09:23:52;;;;;;;3.30;0.80;;;;;;;20.09;40.08;99247.22;5050376;28;20025;-73
2023/03/14 09:26:17;;;;;;;1.33;0.70;;;;;;;20.40;40.10;99303.09;5065161;28;20448;-75
2023/03/14 09:28:43;;;;;;;1.98;0.77;;;;;;;20.38;40.42;99319.50;5055946;28;20029;-74
2023/03/14 09:31:10;;;;;;;1.98;0.70;;;;;;;20.21;40.02;99289.47;5057279;28;20033;-76
2023/03/14 09:33:36;;;;;;;0.75;0.70;;;;;;;19.75;40.16;99222.28;5055793;28;20082;-74
2023/03/14 09:36:02;;;;;;;1.75;0.60;;;;;;;20.42;39.96;99344.19;5054343;28;20044;-74
2023/03/14 09:38:28;;;;;;;2.17;0.60;;;;;;;20.35;40.15;99341.53;5055789;28;20030;-74
2023/03/14 09:40:54;;;;;;;1.92;0.80;;;;;;;20.44;39.89;99355.59;5056905;28;20021;-74
2023/03/14 09:43:21;;;;;;;1.48;0.60;;;;;;;20.12;40.05;99314.25;5075492;28;20036;-75
2023/03/14 09:45:47;;;;;;;1.60;0.70;;;;;;;20.38;40.01;99369.94;5054145;28;20037;-73
2023/03/14 09:48:20;;;;;;;1.73;0.60;;;;;;;20.29;40.33;99353.19;5047983;28;20039;-75
2023/03/14 09:50:49;;;;;;;2.13;0.82;;;;;;;20.31;40.03;99361.09;5069106;28;20074;-75
2023/03/14 09:53:15;;;;;;;;;;;;;;;20.49;40.19;99398.19;5057680;28;20075;-74
2023/03/14 09:55:42;;;;;;;4.05;0.70;;;;;;;20.49;40.17;99403.59;5053632;28;19916;-75
2023/03/14 09:58:13;;;;;;;1.42;1.05;;;;;;;20.31;40.25;99388.06;5044049;28;20040;-73
2023/03/14 10:00:38;;;;;;;2.15;0.60;;;;;;;20.27;40.31;99384.97;5056662;28;20021;-74
2023/03/14 10:03:12;;;;;;;1.20;0.70;;;;;;;20.52;40.16;99425.59;5058331;28;20111;-74
2023/03/14 10:05:39;;;;;;;1.63;0.60;;;;;;;20.46;40.01;99434.50;5059210;28;20045;-75
2023/03/14 10:08:05;;;;;;;1.60;0.60;;;;;;;20.57;40.01;99450.06;5051484;28;20025;-73
2023/03/14 10:10:30;;;;;;;1.60;0.60;;;;;;;20.03;39.89;99370.31;5058104;28;20037;-72
2023/03/14 10:13:17;;;;;;;1.20;0.80;;;;;;;20.59;39.91;99463.34;5057418;28;20025;-72
2023/03/14 10:15:59;;;;;;;2.38;0.80;;;;;;;20.35;40.18;99430.63;5060261;28;20041;-74
2023/03/14 10:18:26;;;;;;;1.55;0.60;;;;;;;20.59;39.56;99483.06;5062009;28;20056;-75
2023/03/14 10:21:06;;;;;;;2.40;0.65;;;;;;;20.66;39.50;99491.97;5050171;28;20041;-75
2023/03/14 10:23:33;;;;;;;2.25;0.88;;;;;;;20.52;39.52;99476.03;5053997;28;20496;-74
2023/03/14 10:26:04;;;;;;;1.52;0.80;;;;;;;20.70;39.75;99514.00;5065091;28;20036;-75
2023/03/14 10:28:33;;;;;;;1.92;1.15;;;;;;;20.65;39.66;99530.00;5054876;28;20033;-75
2023/03/14 10:30:58;;;;;;;3.05;0.73;;;;;;;20.53;39.62;99516.34;5072150;28;20064;-76
2023/03/14 10:33:26;;;;;;;1.95;0.80;;;;;;;20.34;39.66;99501.81;5052558;28;20204;-77
2023/03/14 10:35:55;;;;;;;2.17;0.70;;;;;;;20.47;39.33;99525.25;5066670;28;20068;-75
2023/03/14 10:38:24;;;;;;;1.60;0.90;;;;;;;20.34;39.35;99509.91;5055303;28;20277;-75
2023/03/14 10:40:52;;;;;;;2.97;0.88;;;;;;;20.74;39.58;99574.66;5057708;28;20044;-74
2023/03/14 10:43:21;;;;;;;3.30;0.90;;;;;;;20.75;39.40;99591.69;5068160;28;20025;-75
2023/03/14 10:45:57;;;;;;;7.68;1.05;;;;;;;20.28;39.76;99535.06;5058674;28;20402;-74
2023/03/14 10:48:37;;;;;;;2.65;0.80;;;;;;;20.66;39.27;99610.81;5058668;28;20097;-75
2023/03/14 10:51:03;;;;;;;2.35;1.23;;;;;;;20.78;39.34;99627.22;5051528;28;20033;-73
2023/03/14 10:53:33;;;;;;;2.00;0.80;;;;;;;20.79;39.42;99633.44;5054698;28;20013;-72
2023/03/14 10:56:02;;;;;;;2.78;0.80;;;;;;;20.81;39.71;99642.97;5055488;28;20178;-72
2023/03/14 10:58:29;;;;;;;3.13;0.98;;;;;;;20.82;39.39;99646.53;5066101;28;20029;-73
2023/03/14 11:01:25;;;;;;;2.08;0.75;;;;;;;20.85;39.46;99665.00;5057450;28;20067;-73
2023/03/14 11:04:13;;;;;;;3.22;0.90;;;;;;;20.86;39.38;99682.88;5056668;28;20029;-76
2023/03/14 11:06:57;;;;;;;2.65;1.10;;;;;;;20.88;39.32;99697.00;5056481;28;20041;-72
2023/03/14 11:09:32;;;;;;;3.55;0.93;;;;;;;20.77;39.01;99679.53;5057160;28;20045;-72
2023/03/14 11:12:20;;;;;;;3.20;1.17;;;;;;;20.90;39.19;99701.16;5057341;28;20041;-72
2023/03/14 11:14:52;;;;;;;1.52;0.80;;;;;;;20.61;39.05;99671.91;5054702;28;20102;-72
2023/03/14 11:17:28;;;;;;;3.50;1.00;;;;;;;20.88;39.36;99711.34;5057744;28;20021;-73
2023/03/14 11:20:13;;;;;;;2.47;1.10;;;;;;;20.76;38.95;99704.91;5057981;28;20017;-73
2023/03/14 11:22:47;;;;;;;4.40;1.05;;;;;;;20.86;38.88;99731.50;5068769;28;20026;-71
2023/03/14 11:25:20;;;;;;;1.60;1.13;;;;;;;20.92;39.06;99747.69;5052414;28;20057;-72
2023/03/14 11:28:08;;;;;;;2.80;1.00;;;;;;;21.00;39.27;99762.88;5050914;28;20037;-73
2023/03/14 11:30:39;;;;;;;5.13;1.70;;;;;;;21.04;39.34;99771.38;5066292;28;20079;-70
2023/03/14 11:33:15;;;;;;;3.17;0.98;;;;;;;21.07;39.43;99774.50;5049591;28;20510;-70